createdAt,value
2023-02-08T00:01:08.351Z,63.35
2023-02-08T00:03:35.776Z,76.28
2023-02-08T00:06:03.477Z,80.82
2023-02-08T00:08:31.016Z,70.22
2023-02-08T00:10:58.124Z,65.40
2023-02-08T00:13:25.141Z,78.57
2023-02-08T00:15:54.127Z,73.30
2023-02-08T00:18:22.329Z,74.53
2023-02-08T00:20:49.647Z,82.80
2023-02-08T00:23:17.374Z,89.22
2023-02-08T00:25:44.331Z,82.78
2023-02-08T00:28:14.933Z,84.70
2023-02-08T00:30:43.096Z,78.47
2023-02-08T00:33:11.025Z,93.25
2023-02-08T00:35:38.130Z,89.45
2023-02-08T00:38:05.061Z,86.88
2023-02-08T00:40:31.862Z,88.57
2023-02-08T00:42:58.719Z,96.68
2023-02-08T00:45:25.517Z,99.20
2023-02-08T00:47:52.263Z,99.47
2023-02-08T00:50:19.553Z,89.38
2023-02-08T00:52:46.324Z,105.25
2023-02-08T00:55:13.115Z,86.18
2023-02-08T00:57:39.876Z,79.63
2023-02-08T01:00:09.223Z,84.68
2023-02-08T01:02:38.947Z,89.28
2023-02-08T01:05:06.428Z,75.40
2023-02-08T01:07:33.197Z,82.25
2023-02-08T01:10:00.806Z,79.35
2023-02-08T01:12:27.756Z,71.07
2023-02-08T01:14:54.522Z,90.07
2023-02-08T01:17:21.276Z,93.43
2023-02-08T01:19:48.084Z,89.57
2023-02-08T01:22:14.841Z,95.93
2023-02-08T01:24:41.932Z,86.28
2023-02-08T01:27:08.839Z,90.95
2023-02-08T01:29:35.695Z,80.90
2023-02-08T01:32:02.514Z,93.07
2023-02-08T01:34:29.316Z,81.30
2023-02-08T01:36:56.104Z,79.25
2023-02-08T01:39:23.248Z,80.43
2023-02-08T01:41:50.015Z,80.45
2023-02-08T01:44:19.508Z,77.97
2023-02-08T01:46:51.381Z,80.40
2023-02-08T01:49:24.317Z,80.88
2023-02-08T01:52:00.845Z,71.18
2023-02-08T01:54:37.159Z,74.25
2023-02-08T01:57:04.899Z,80.50
2023-02-08T01:59:46.132Z,70.38
2023-02-08T02:02:17.145Z,70.47
2023-02-08T02:04:44.581Z,68.03
2023-02-08T02:07:13.439Z,69.90
2023-02-08T02:10:08.139Z,72.05
2023-02-08T02:12:37.189Z,46.25
2023-02-08T02:15:05.825Z,74.93
2023-02-08T02:17:33.151Z,75.40
2023-02-08T02:20:39.183Z,76.35
2023-02-08T02:23:25.583Z,66.30
2023-02-08T02:26:22.939Z,65.25
2023-02-08T02:29:27.552Z,62.97
2023-02-08T02:32:55.788Z,69.38
2023-02-08T02:36:01.395Z,73.85
2023-02-08T02:39:03.786Z,74.90
2023-02-08T02:42:11.047Z,81.03
2023-02-08T02:45:00.358Z,68.43
2023-02-08T02:48:32.877Z,75.32
2023-02-08T02:51:10.474Z,72.18
2023-02-08T02:53:58.353Z,79.88
2023-02-08T02:56:32.401Z,73.00
2023-02-08T02:59:06.129Z,76.05
2023-02-08T03:01:33.626Z,74.10
2023-02-08T03:04:01.166Z,80.82
2023-02-08T03:06:55.570Z,73.65
2023-02-08T03:09:28.315Z,74.68
2023-02-08T03:12:29.199Z,87.85
2023-02-08T03:15:48.397Z,95.85
2023-02-08T03:18:24.141Z,79.20
2023-02-08T03:21:23.486Z,73.28
2023-02-08T03:24:00.126Z,68.18
2023-02-08T03:26:47.193Z,87.60
2023-02-08T03:29:23.257Z,81.03
2023-02-08T03:32:25.438Z,70.82
2023-02-08T03:35:06.205Z,72.57
2023-02-08T03:38:08.227Z,84.28
2023-02-08T03:40:43.147Z,76.18
2023-02-08T03:43:29.764Z,86.05
2023-02-08T03:46:44.101Z,82.75
2023-02-08T03:49:25.103Z,80.43
2023-02-08T03:51:53.570Z,80.50
2023-02-08T03:54:24.691Z,82.35
2023-02-08T03:57:10.796Z,77.50
2023-02-08T03:59:42.993Z,72.15
2023-02-08T04:02:19.519Z,82.00
2023-02-08T04:04:50.290Z,66.93
2023-02-08T04:07:19.504Z,69.30
2023-02-08T04:09:46.930Z,65.28
2023-02-08T04:12:13.866Z,55.08
2023-02-08T04:14:40.678Z,66.72
2023-02-08T04:17:07.837Z,58.38
2023-02-08T04:19:34.633Z,63.60
2023-02-08T04:22:01.559Z,67.93
2023-02-08T04:24:28.349Z,64.00
2023-02-08T04:26:55.197Z,62.10
2023-02-08T04:29:22.286Z,73.70
2023-02-08T04:31:49.245Z,75.28
2023-02-08T04:34:16.582Z,68.55
2023-02-08T04:36:43.754Z,68.53
2023-02-08T04:39:10.799Z,56.97
2023-02-08T04:41:37.568Z,68.00
2023-02-08T04:44:04.329Z,58.72
2023-02-08T04:46:31.177Z,66.32
2023-02-08T04:48:58.989Z,59.90
2023-02-08T04:51:25.928Z,59.83
2023-02-08T04:53:52.692Z,67.10
2023-02-08T04:56:19.833Z,75.85
2023-02-08T04:58:48.569Z,69.25
2023-02-08T05:01:16.677Z,78.85
2023-02-08T05:03:43.513Z,71.43
2023-02-08T05:06:10.645Z,70.28
2023-02-08T05:08:37.564Z,76.78
2023-02-08T05:11:04.594Z,79.20
2023-02-08T05:13:31.964Z,78.57
2023-02-08T05:15:58.771Z,91.22
2023-02-08T05:18:25.759Z,82.45
2023-02-08T05:21:00.991Z,91.75
2023-02-08T05:23:28.264Z,88.47
2023-02-08T05:25:55.377Z,95.30
2023-02-08T05:28:22.588Z,100.53
2023-02-08T05:30:49.829Z,98.43
2023-02-08T05:33:16.987Z,108.38
2023-02-08T05:35:45.468Z,102.95
2023-02-08T05:38:12.482Z,103.32
2023-02-08T05:40:39.552Z,110.32
2023-02-08T05:43:06.504Z,107.18
2023-02-08T05:45:33.514Z,119.00
2023-02-08T05:48:00.306Z,115.50
2023-02-08T05:50:28.153Z,142.75
2023-02-08T05:52:55.033Z,118.75
2023-02-08T05:55:21.803Z,160.85
2023-02-08T05:57:48.821Z,161.02
2023-02-08T06:00:16.313Z,147.00
2023-02-08T06:02:43.395Z,139.60
2023-02-08T06:05:10.232Z,170.20
2023-02-08T06:07:37.106Z,152.32
2023-02-08T06:10:05.013Z,174.35
2023-02-08T06:12:31.939Z,148.68
2023-02-08T06:14:58.850Z,145.40
2023-02-08T06:17:28.764Z,139.30
2023-02-08T06:19:55.789Z,131.13
2023-02-08T06:22:22.631Z,127.00
2023-02-08T06:24:49.406Z,115.40
2023-02-08T06:27:16.554Z,111.30
2023-02-08T06:29:43.370Z,126.40
2023-02-08T06:32:10.226Z,117.05
2023-02-08T06:34:37.148Z,110.10
2023-02-08T06:37:05.727Z,115.03
2023-02-08T06:39:32.975Z,124.05
2023-02-08T06:41:59.768Z,108.68
2023-02-08T06:44:26.661Z,112.25
2023-02-08T06:46:53.532Z,108.60
2023-02-08T06:49:20.291Z,109.18
2023-02-08T06:51:47.264Z,106.13
2023-02-08T06:54:15.720Z,105.32
2023-02-08T06:56:43.572Z,123.53
2023-02-08T06:59:10.599Z,87.97
2023-02-08T07:01:37.432Z,99.93
2023-02-08T07:04:04.905Z,87.97
2023-02-08T07:06:31.953Z,97.60
2023-02-08T07:08:58.905Z,107.45
2023-02-08T07:11:25.941Z,104.75
2023-02-08T07:13:54.660Z,99.72
2023-02-08T07:16:21.761Z,105.80
2023-02-08T07:18:48.588Z,107.50
2023-02-08T07:21:15.818Z,111.68
2023-02-08T07:23:42.741Z,104.47
2023-02-08T07:26:12.502Z,102.43
2023-02-08T07:28:39.766Z,99.10
2023-02-08T07:31:13.725Z,98.93
2023-02-08T07:33:41.324Z,135.90
2023-02-08T07:36:10.596Z,112.90
2023-02-08T07:38:38.878Z,112.03
2023-02-08T07:41:09.733Z,119.70
2023-02-08T07:43:38.755Z,113.03
2023-02-08T07:46:19.222Z,123.28
2023-02-08T07:48:46.937Z,157.23
2023-02-08T07:51:13.732Z,131.68
2023-02-08T07:53:41.248Z,128.68
2023-02-08T07:56:08.291Z,204.13
2023-02-08T07:58:35.046Z,171.30
2023-02-08T08:01:12.564Z,201.20
2023-02-08T08:03:48.212Z,172.57
2023-02-08T08:06:15.035Z,186.68
2023-02-08T08:08:42.536Z,174.52
2023-02-08T08:11:09.438Z,171.75
2023-02-08T08:13:36.219Z,166.73
2023-02-08T08:16:03.074Z,214.43
2023-02-08T08:18:29.992Z,160.55
2023-02-08T08:20:56.806Z,266.15
2023-02-08T08:23:24.149Z,189.70
2023-02-08T08:25:51.262Z,174.07
2023-02-08T08:28:18.209Z,207.95
2023-02-08T08:30:46.014Z,179.40
2023-02-08T08:33:14.597Z,156.82
2023-02-08T08:35:43.045Z,168.85
2023-02-08T08:38:10.297Z,165.20
2023-02-08T08:40:37.063Z,160.73
2023-02-08T08:43:03.817Z,174.55
2023-02-08T08:45:30.670Z,169.85
2023-02-08T08:47:57.624Z,165.27
2023-02-08T08:50:24.400Z,168.38
2023-02-08T08:52:51.316Z,169.32
2023-02-08T08:55:18.223Z,155.65
2023-02-08T08:57:45.280Z,159.00
2023-02-08T09:00:13.222Z,156.32
2023-02-08T09:02:40.039Z,146.10
2023-02-08T09:05:08.321Z,167.60
2023-02-08T09:07:35.554Z,151.02
2023-02-08T09:10:02.505Z,167.38
2023-02-08T09:12:29.702Z,161.25
2023-02-08T09:14:56.810Z,149.15
2023-02-08T09:17:23.662Z,147.20
2023-02-08T09:19:50.456Z,160.02
2023-02-08T09:22:17.421Z,151.20
2023-02-08T09:24:44.300Z,146.10
2023-02-08T09:27:11.432Z,136.65
2023-02-08T09:29:38.184Z,147.82
2023-02-08T09:32:05.202Z,128.13
2023-02-08T09:34:31.950Z,118.43
2023-02-08T09:36:58.801Z,122.13
2023-02-08T09:39:26.430Z,120.47
2023-02-08T09:42:24.790Z,113.97
2023-02-08T09:45:24.541Z,109.43
2023-02-08T09:48:27.006Z,106.25
2023-02-08T09:51:07.878Z,114.60
2023-02-08T09:53:41.622Z,99.53
2023-02-08T09:56:15.684Z,103.97
2023-02-08T09:58:50.265Z,75.75
2023-02-08T10:01:31.169Z,97.57
2023-02-08T10:04:04.782Z,96.00
2023-02-08T10:06:32.010Z,85.72
2023-02-08T10:09:07.231Z,83.05
2023-02-08T10:12:18.493Z,84.80
2023-02-08T10:15:52.533Z,81.18
2023-02-08T10:18:26.808Z,81.00
2023-02-08T10:21:26.111Z,77.45
2023-02-08T10:24:45.431Z,66.85
2023-02-08T10:27:23.626Z,69.10
2023-02-08T10:30:16.972Z,64.40
2023-02-08T10:33:01.872Z,60.38
2023-02-08T10:35:38.893Z,58.33
2023-02-08T10:38:44.058Z,60.60
2023-02-08T10:41:20.325Z,55.67
2023-02-08T10:44:03.670Z,56.22
2023-02-08T10:46:46.122Z,58.60
2023-02-08T10:49:52.036Z,53.83
2023-02-08T10:54:45.529Z,56.65
2023-02-08T10:57:22.831Z,51.53
2023-02-08T11:00:05.429Z,53.92
2023-02-08T11:02:41.472Z,51.03
2023-02-08T11:05:37.558Z,52.92
2023-02-08T11:08:08.900Z,50.47
2023-02-08T11:10:38.325Z,54.92
2023-02-08T11:13:19.145Z,52.47
2023-02-08T11:15:55.554Z,49.25
2023-02-08T11:18:48.573Z,44.15
2023-02-08T11:21:25.298Z,47.28
2023-02-08T11:23:55.669Z,46.10
2023-02-08T11:26:33.982Z,44.80
2023-02-08T11:29:23.908Z,49.95
2023-02-08T11:32:15.316Z,45.38
2023-02-08T11:34:42.153Z,44.25
2023-02-08T11:37:22.834Z,42.85
2023-02-08T11:39:58.388Z,45.83
2023-02-08T11:42:28.331Z,41.50
2023-02-08T11:44:57.867Z,46.03
2023-02-08T11:47:29.396Z,48.80
2023-02-08T11:50:03.666Z,40.03
2023-02-08T11:52:36.254Z,42.45
2023-02-08T11:55:21.819Z,38.53
2023-02-08T11:58:01.641Z,37.72
2023-02-08T12:00:35.642Z,44.92
2023-02-08T12:03:08.433Z,36.53
2023-02-08T12:05:44.761Z,41.50
2023-02-08T12:08:26.174Z,42.08
2023-02-08T12:11:14.217Z,37.35
2023-02-08T12:14:22.771Z,29.60
2023-02-08T12:17:39.486Z,36.47
2023-02-08T12:20:32.317Z,35.88
2023-02-08T12:23:39.048Z,32.17
2023-02-08T12:26:19.702Z,32.92
2023-02-08T12:29:12.735Z,36.33
2023-02-08T12:31:54.905Z,35.40
2023-02-08T12:34:33.897Z,27.48
2023-02-08T12:37:40.001Z,36.45
2023-02-08T12:40:41.760Z,32.47
2023-02-08T12:43:33.233Z,24.85
2023-02-08T12:46:31.079Z,29.63
2023-02-08T12:49:31.908Z,29.25
2023-02-08T12:52:19.395Z,27.90
2023-02-08T12:54:56.813Z,32.70
2023-02-08T12:57:26.169Z,30.52
2023-02-08T13:00:08.574Z,29.13
2023-02-08T13:02:57.871Z,26.75
2023-02-08T13:05:34.767Z,28.42
2023-02-08T13:08:26.824Z,24.92
2023-02-08T13:11:10.740Z,26.00
2023-02-08T13:13:56.816Z,26.95
2023-02-08T13:16:30.189Z,23.85
2023-02-08T13:19:24.240Z,25.35
2023-02-08T13:21:53.993Z,20.40
2023-02-08T13:24:34.838Z,21.75
2023-02-08T13:27:01.710Z,20.40
2023-02-08T13:29:33.384Z,21.95
2023-02-08T13:32:08.613Z,21.88
2023-02-08T13:34:48.808Z,19.08
2023-02-08T13:37:28.275Z,20.45
2023-02-08T13:40:28.557Z,17.48
2023-02-08T13:43:06.128Z,18.92
2023-02-08T13:45:38.347Z,23.83
2023-02-08T13:48:08.950Z,21.58
2023-02-08T13:50:38.625Z,25.30
2023-02-08T13:53:09.332Z,21.23
2023-02-08T13:55:46.313Z,28.45
2023-02-08T13:58:16.022Z,18.52
2023-02-08T14:00:58.214Z,24.77
2023-02-08T14:03:28.241Z,27.05
2023-02-08T14:06:19.438Z,24.25
2023-02-08T14:08:54.374Z,24.30
2023-02-08T14:14:34.375Z,27.77
2023-02-08T14:17:04.202Z,25.65
2023-02-08T14:19:34.765Z,29.67
2023-02-08T14:22:07.093Z,24.88
2023-02-08T14:24:40.292Z,24.65
2023-02-08T14:27:24.186Z,24.42
2023-02-08T14:30:07.460Z,35.63
2023-02-08T14:32:39.383Z,28.17
2023-02-08T14:35:27.338Z,32.08
2023-02-08T14:38:19.051Z,26.50
2023-02-08T14:40:57.915Z,33.33
2023-02-08T14:43:38.642Z,28.48
2023-02-08T14:46:40.340Z,33.10
2023-02-08T14:49:17.471Z,33.10
2023-02-08T14:51:56.383Z,31.45
2023-02-08T14:54:34.230Z,30.00
2023-02-08T14:57:20.357Z,30.73
2023-02-08T14:59:48.402Z,31.65
2023-02-08T15:02:22.735Z,34.30
2023-02-08T15:04:50.133Z,30.13
2023-02-08T15:07:33.538Z,31.92
2023-02-08T15:10:05.977Z,27.45
2023-02-08T15:12:37.164Z,26.48
2023-02-08T15:15:06.594Z,30.20
2023-02-08T15:17:34.818Z,28.60
2023-02-08T15:20:06.430Z,37.83
2023-02-08T15:22:38.522Z,27.00
2023-02-08T15:25:22.916Z,30.67
2023-02-08T15:27:59.759Z,28.87
2023-02-08T15:30:35.447Z,29.70
2023-02-08T15:33:14.638Z,31.38
2023-02-08T15:35:43.548Z,31.35
2023-02-08T15:38:20.302Z,30.25
2023-02-08T15:41:05.304Z,29.73
2023-02-08T15:43:33.769Z,28.45
2023-02-08T15:46:05.340Z,29.17
2023-02-08T15:48:34.073Z,30.83
2023-02-08T15:51:01.968Z,32.53
2023-02-08T15:53:29.854Z,28.48
2023-02-08T15:56:02.069Z,26.25
2023-02-08T15:58:37.905Z,27.25
2023-02-08T16:01:07.565Z,26.85
2023-02-08T16:03:37.020Z,31.15
2023-02-08T16:06:06.957Z,26.60
2023-02-08T16:08:43.192Z,25.60
2023-02-08T16:11:14.263Z,22.95
2023-02-08T16:13:47.244Z,26.40
2023-02-08T16:16:21.868Z,27.45
2023-02-08T16:19:02.470Z,25.45
2023-02-08T16:21:39.633Z,29.13
2023-02-08T16:24:30.116Z,26.30
2023-02-08T16:27:18.132Z,25.00
2023-02-08T16:29:47.647Z,25.45
2023-02-08T16:32:34.338Z,27.63
2023-02-08T16:35:19.230Z,29.30
2023-02-08T16:37:46.288Z,36.33
2023-02-08T16:40:42.494Z,25.85
2023-02-08T16:43:33.990Z,29.88
2023-02-08T16:46:16.602Z,29.23
2023-02-08T16:48:48.509Z,29.92
2023-02-08T16:51:22.107Z,32.78
2023-02-08T16:53:56.975Z,33.35
2023-02-08T16:58:51.500Z,28.92
2023-02-08T17:01:26.512Z,30.35
2023-02-08T17:03:53.464Z,32.22
2023-02-08T17:06:32.154Z,31.45
2023-02-08T17:09:00.908Z,28.98
2023-02-08T17:11:28.729Z,31.30
2023-02-08T17:13:56.243Z,33.30
2023-02-08T17:16:27.259Z,36.80
2023-02-08T17:18:54.497Z,33.92
2023-02-08T17:21:22.081Z,36.78
2023-02-08T17:23:49.873Z,29.92
2023-02-08T17:26:30.133Z,33.40
2023-02-08T17:28:59.612Z,32.90
2023-02-08T17:31:29.812Z,36.22
2023-02-08T17:34:04.242Z,34.00
2023-02-08T17:36:34.201Z,34.65
2023-02-08T17:39:02.189Z,37.45
2023-02-08T17:41:29.022Z,30.10
2023-02-08T17:43:57.938Z,33.97
2023-02-08T17:46:28.324Z,31.60
2023-02-08T17:48:55.211Z,41.47
2023-02-08T17:51:24.283Z,32.05
2023-02-08T17:53:51.194Z,30.40
2023-02-08T17:56:21.451Z,34.67
2023-02-08T17:58:52.933Z,32.03
2023-02-08T18:01:25.213Z,30.33
2023-02-08T18:03:53.000Z,26.15
2023-02-08T18:06:21.053Z,30.55
2023-02-08T18:08:47.828Z,30.70
2023-02-08T18:11:21.176Z,28.77
2023-02-08T18:13:50.602Z,27.80
2023-02-08T18:16:24.380Z,33.13
2023-02-08T18:18:51.547Z,27.30
2023-02-08T18:21:22.445Z,33.28
2023-02-08T18:23:52.783Z,32.75
2023-02-08T18:26:24.062Z,33.10
2023-02-08T18:28:52.023Z,32.38
2023-02-08T18:31:20.668Z,35.50
2023-02-08T18:33:49.748Z,32.28
2023-02-08T18:36:18.391Z,31.42
2023-02-08T18:38:47.549Z,37.20
2023-02-08T18:41:19.549Z,30.40
2023-02-08T18:43:46.522Z,36.80
2023-02-08T18:46:18.110Z,35.47
2023-02-08T18:48:46.571Z,36.88
2023-02-08T18:51:14.934Z,31.25
2023-02-08T18:53:42.946Z,36.17
2023-02-08T18:56:12.809Z,32.67
2023-02-08T18:58:40.064Z,31.58
2023-02-08T19:01:16.435Z,31.63
2023-02-08T19:03:44.984Z,39.30
2023-02-08T19:06:22.435Z,30.55
2023-02-08T19:08:53.030Z,32.08
2023-02-08T19:11:34.226Z,38.03
2023-02-08T19:14:04.392Z,34.20
2023-02-08T19:16:33.477Z,40.75
2023-02-08T19:19:01.445Z,35.17
2023-02-08T19:21:30.324Z,37.28
2023-02-08T19:24:00.931Z,33.40
2023-02-08T19:26:39.840Z,30.58
2023-02-08T19:29:14.694Z,33.88
2023-02-08T19:34:11.995Z,34.72
2023-02-08T19:36:49.436Z,32.28
2023-02-08T19:39:21.266Z,32.90
2023-02-08T19:41:49.447Z,36.78
2023-02-08T19:44:19.075Z,31.25
2023-02-08T19:46:54.379Z,29.20
2023-02-08T19:49:26.061Z,37.80
2023-02-08T19:51:53.471Z,34.35
2023-02-08T19:54:21.573Z,34.70
2023-02-08T19:56:50.502Z,30.38
2023-02-08T19:59:25.335Z,35.30
2023-02-08T20:04:20.730Z,40.55
2023-02-08T20:06:53.106Z,40.47
2023-02-08T20:09:21.257Z,41.17
2023-02-08T20:11:56.971Z,36.30
2023-02-08T20:14:33.615Z,36.97
2023-02-08T20:17:03.708Z,39.20
2023-02-08T20:19:31.347Z,35.30
2023-02-08T20:21:59.193Z,33.05
2023-02-08T20:24:27.120Z,34.45
2023-02-08T20:26:54.996Z,36.83
2023-02-08T20:29:22.862Z,30.70
2023-02-08T20:31:53.674Z,32.92
2023-02-08T20:34:23.558Z,33.38
2023-02-08T20:37:05.858Z,38.58
2023-02-08T20:39:35.027Z,40.97
2023-02-08T20:42:01.880Z,35.50
2023-02-08T20:44:28.795Z,35.83
2023-02-08T20:46:55.818Z,39.20
2023-02-08T20:49:25.721Z,37.15
2023-02-08T20:51:55.843Z,33.70
2023-02-08T20:54:25.638Z,34.40
2023-02-08T20:56:54.271Z,39.03
2023-02-08T20:59:21.502Z,37.05
2023-02-08T21:01:48.607Z,33.78
2023-02-08T21:04:17.258Z,37.63
2023-02-08T21:06:46.106Z,35.45
2023-02-08T21:09:15.398Z,36.13
2023-02-08T21:11:42.442Z,32.22
2023-02-08T21:14:15.437Z,33.47
2023-02-08T21:16:42.348Z,35.17
2023-02-08T21:19:10.915Z,37.50
2023-02-08T21:21:37.686Z,36.20
2023-02-08T21:24:05.605Z,33.92
2023-02-08T21:26:32.436Z,32.55
2023-02-08T21:29:00.892Z,39.33
2023-02-08T21:31:28.059Z,35.38
2023-02-08T21:33:56.824Z,34.58
2023-02-08T21:36:26.155Z,37.75
2023-02-08T21:38:54.162Z,39.35
2023-02-08T21:41:28.326Z,36.58
2023-02-08T21:43:58.678Z,31.00
2023-02-08T21:46:27.983Z,43.17
2023-02-08T21:49:15.145Z,54.15
2023-02-08T21:52:01.222Z,41.30
2023-02-08T21:54:42.657Z,40.10
2023-02-08T21:57:13.952Z,35.58
2023-02-08T21:59:41.388Z,39.78
2023-02-08T22:02:21.927Z,38.15
2023-02-08T22:05:08.754Z,37.25
2023-02-08T22:07:54.639Z,41.58
2023-02-08T22:10:25.967Z,39.63
2023-02-08T22:12:53.676Z,41.08
2023-02-08T22:15:23.535Z,34.17
2023-02-08T22:17:55.922Z,36.72
2023-02-08T22:20:23.283Z,36.33
2023-02-08T22:22:53.130Z,31.92
2023-02-08T22:25:22.506Z,28.83
2023-02-08T22:27:49.783Z,29.33
2023-02-08T22:30:18.944Z,32.33
2023-02-08T22:32:48.407Z,31.77
2023-02-08T22:35:17.806Z,34.05
2023-02-08T22:37:44.989Z,31.83
2023-02-08T22:40:12.926Z,28.55
2023-02-08T22:42:41.209Z,33.80
2023-02-08T22:45:08.931Z,31.75
2023-02-08T22:47:36.437Z,27.02
2023-02-08T22:50:05.061Z,31.75
2023-02-08T22:52:34.528Z,33.83
2023-02-08T22:55:04.170Z,29.52
2023-02-08T22:57:35.951Z,27.52
2023-02-08T23:00:06.141Z,33.10
2023-02-08T23:02:33.314Z,26.88
2023-02-08T23:05:00.174Z,27.75
2023-02-08T23:07:27.129Z,28.90
2023-02-08T23:09:54.066Z,33.60
2023-02-08T23:12:20.885Z,27.60
2023-02-08T23:14:49.624Z,33.33
2023-02-08T23:17:17.073Z,28.45
2023-02-08T23:19:43.860Z,28.33
2023-02-08T23:22:10.700Z,30.23
2023-02-08T23:24:37.458Z,33.35
2023-02-08T23:27:04.597Z,26.90
2023-02-08T23:29:31.459Z,27.27
2023-02-08T23:31:58.324Z,30.60
2023-02-08T23:34:25.165Z,35.38
2023-02-08T23:36:52.097Z,30.48
2023-02-08T23:39:18.865Z,34.70
2023-02-08T23:41:45.911Z,33.25
2023-02-08T23:44:12.800Z,35.45
2023-02-08T23:46:39.695Z,34.50
2023-02-08T23:49:06.821Z,34.55
2023-02-08T23:51:33.581Z,34.25
2023-02-08T23:54:00.398Z,34.72
2023-02-08T23:56:30.104Z,32.60
2023-02-08T23:58:59.422Z,38.55
